createdAt,value
2017-05-01T03:01:11.605Z,20.31
2017-05-01T03:01:37.181Z,20.38
2017-05-01T03:02:02.739Z,20.27
2017-05-01T03:02:28.314Z,20.38
2017-05-01T03:02:53.967Z,20.35
2017-05-01T03:03:19.531Z,20.35
2017-05-01T03:03:45.097Z,20.28
2017-05-01T03:04:10.683Z,20.39
2017-05-01T03:04:36.384Z,20.27
2017-05-01T03:05:01.951Z,20.31
2017-05-01T03:05:27.521Z,20.28
2017-05-01T03:05:53.260Z,20.38
2017-05-01T03:06:18.822Z,20.25
2017-05-01T03:06:44.378Z,20.39
2017-05-01T03:07:09.937Z,20.39
2017-05-01T03:07:35.498Z,20.34
2017-05-01T03:08:01.047Z,20.31
2017-05-01T03:08:26.631Z,20.38
2017-05-01T03:08:52.189Z,20.35
2017-05-01T03:09:17.750Z,20.41
2017-05-01T03:09:43.397Z,20.35
2017-05-01T03:10:08.974Z,20.38
2017-05-01T03:10:34.541Z,20.27
2017-05-01T03:11:00.199Z,20.31
2017-05-01T03:11:25.783Z,20.34
2017-05-01T03:11:51.341Z,20.41
2017-05-01T03:12:17.021Z,20.46
2017-05-01T03:12:42.577Z,20.31
2017-05-01T03:13:08.142Z,20.27
2017-05-01T03:13:33.741Z,20.39
2017-05-01T03:13:59.300Z,20.31
2017-05-01T03:14:24.843Z,20.33
2017-05-01T03:14:50.407Z,20.41
2017-05-01T03:15:15.959Z,20.39
2017-05-01T03:15:41.534Z,20.38
2017-05-01T03:16:07.109Z,20.39
2017-05-01T03:16:32.658Z,20.34
2017-05-01T03:16:58.213Z,20.41
2017-05-01T03:17:23.794Z,20.39
2017-05-01T03:17:49.365Z,20.25
2017-05-01T03:18:14.941Z,20.41
2017-05-01T03:18:40.513Z,20.38
2017-05-01T03:19:06.078Z,20.34
2017-05-01T03:19:31.674Z,20.3
2017-05-01T03:19:57.294Z,20.28
2017-05-01T03:20:22.853Z,20.34
2017-05-01T03:20:48.490Z,20.28
2017-05-01T03:21:14.053Z,20.38
2017-05-01T03:21:39.622Z,20.34
2017-05-01T03:22:05.203Z,20.34
2017-05-01T03:22:30.756Z,20.31
2017-05-01T03:22:56.303Z,20.42
2017-05-01T03:23:21.856Z,20.25
2017-05-01T03:23:47.402Z,20.38
2017-05-01T03:24:12.958Z,20.38
2017-05-01T03:24:38.517Z,20.33
2017-05-01T03:25:04.052Z,20.25
2017-05-01T03:25:29.698Z,20.35
2017-05-01T03:25:55.272Z,20.35
2017-05-01T03:26:20.853Z,20.34
2017-05-01T03:26:46.413Z,20.39
2017-05-01T03:27:12.000Z,20.35
2017-05-01T03:27:37.559Z,20.24
2017-05-01T03:28:03.144Z,20.31
2017-05-01T03:28:28.833Z,20.34
2017-05-01T03:28:54.481Z,20.34
2017-05-01T03:29:20.045Z,20.42
2017-05-01T03:29:45.610Z,20.31
2017-05-01T03:30:11.174Z,20.33
2017-05-01T03:30:36.738Z,20.38
2017-05-01T03:31:02.302Z,20.24
2017-05-01T03:31:27.936Z,20.38
2017-05-01T03:31:53.515Z,20.28
2017-05-01T03:32:19.081Z,20.35
2017-05-01T03:32:44.642Z,20.28
2017-05-01T03:33:10.203Z,20.25
2017-05-01T03:33:35.773Z,20.33
2017-05-01T03:34:01.338Z,20.35
2017-05-01T03:34:26.911Z,20.38
2017-05-01T03:34:52.486Z,20.33
2017-05-01T03:35:18.052Z,20.34
2017-05-01T03:35:43.610Z,20.24
2017-05-01T03:36:09.237Z,20.34
2017-05-01T03:36:34.797Z,20.35
2017-05-01T03:37:00.353Z,20.38
2017-05-01T03:37:25.933Z,20.34
2017-05-01T03:37:51.509Z,20.34
2017-05-01T03:38:17.077Z,20.33
2017-05-01T03:38:42.635Z,20.41
2017-05-01T03:39:08.193Z,20.35
2017-05-01T03:39:33.803Z,20.31
2017-05-01T03:39:59.374Z,20.33
2017-05-01T03:40:24.932Z,20.31
2017-05-01T03:40:50.622Z,20.38
2017-05-01T03:41:16.208Z,20.38
2017-05-01T03:41:41.768Z,20.34
2017-05-01T03:42:07.341Z,20.33
2017-05-01T03:42:33.138Z,20.31
2017-05-01T03:42:58.688Z,20.35
2017-05-01T03:43:24.306Z,20.3
2017-05-01T03:43:49.862Z,20.34
2017-05-01T03:44:15.459Z,20.34
2017-05-01T03:44:41.029Z,20.33
2017-05-01T03:45:06.603Z,20.39
2017-05-01T03:45:32.162Z,20.34
2017-05-01T03:45:57.733Z,20.34
2017-05-01T03:46:23.304Z,20.34
2017-05-01T03:46:48.984Z,20.31
2017-05-01T03:47:14.541Z,20.34
2017-05-01T03:47:40.104Z,20.33
2017-05-01T03:48:05.652Z,20.33
2017-05-01T03:48:31.220Z,20.3
2017-05-01T03:48:56.766Z,20.31
2017-05-01T03:49:22.305Z,20.34
2017-05-01T03:49:47.851Z,20.31
2017-05-01T03:50:13.395Z,20.28
2017-05-01T03:50:38.931Z,20.34
2017-05-01T03:51:04.480Z,20.34
2017-05-01T03:51:30.042Z,20.35
2017-05-01T03:51:55.583Z,20.33
2017-05-01T03:52:21.148Z,20.35
2017-05-01T03:52:46.717Z,20.33
2017-05-01T03:53:12.268Z,20.28
2017-05-01T03:53:37.814Z,20.3
2017-05-01T03:54:03.374Z,20.3
2017-05-01T03:54:29.006Z,20.3
2017-05-01T03:54:54.602Z,20.31
2017-05-01T03:55:20.139Z,20.35
2017-05-01T03:55:45.705Z,20.38
2017-05-01T03:56:11.320Z,20.31
2017-05-01T03:56:36.898Z,20.34
2017-05-01T03:57:02.459Z,20.3
2017-05-01T03:57:28.040Z,20.35
2017-05-01T03:57:53.594Z,20.34
2017-05-01T03:58:19.153Z,20.38
2017-05-01T03:58:44.745Z,20.38
2017-05-01T03:59:10.465Z,20.24
2017-05-01T03:59:36.111Z,20.33
2017-05-01T04:00:01.683Z,20.35
2017-05-01T04:00:27.302Z,20.34
2017-05-01T04:00:52.853Z,20.34
2017-05-01T04:01:18.415Z,20.31
2017-05-01T04:01:44.050Z,20.34
2017-05-01T04:03:25.684Z,20.24
2017-05-01T04:03:51.250Z,20.31
2017-05-01T04:04:16.942Z,20.34
2017-05-01T04:04:42.561Z,20.35
2017-05-01T04:05:08.134Z,20.23
2017-05-01T04:05:33.733Z,20.35
2017-05-01T04:05:59.302Z,20.3
2017-05-01T04:06:24.865Z,20.31
2017-05-01T04:06:50.468Z,20.33
2017-05-01T04:07:16.045Z,20.34
2017-05-01T04:07:41.594Z,20.34
2017-05-01T04:08:07.188Z,20.31
2017-05-01T04:08:32.739Z,20.34
2017-05-01T04:08:58.293Z,20.24
2017-05-01T04:09:23.845Z,20.33
2017-05-01T04:09:49.404Z,20.31
2017-05-01T04:10:14.970Z,20.34
2017-05-01T04:10:40.533Z,20.31
2017-05-01T04:11:06.114Z,20.33
2017-05-01T04:11:31.660Z,20.35
2017-05-01T04:11:57.317Z,20.25
2017-05-01T04:12:22.883Z,20.34
2017-05-01T04:12:48.443Z,20.34
2017-05-01T04:13:14.040Z,20.34
2017-05-01T04:13:39.646Z,20.34
2017-05-01T04:14:05.210Z,20.31
2017-05-01T04:14:30.787Z,20.33
2017-05-01T04:14:56.363Z,20.28
2017-05-01T04:15:21.911Z,20.27
2017-05-01T04:15:47.470Z,20.24
2017-05-01T04:16:13.032Z,20.23
2017-05-01T04:16:38.644Z,20.3
2017-05-01T04:17:04.213Z,20.25
2017-05-01T04:17:29.774Z,20.27
2017-05-01T04:17:55.338Z,20.31
2017-05-01T04:18:20.902Z,20.24
2017-05-01T04:18:46.477Z,20.31
2017-05-01T04:19:12.042Z,20.3
2017-05-01T04:19:37.700Z,20.28
2017-05-01T04:20:03.303Z,20.28
2017-05-01T04:20:28.884Z,20.25
2017-05-01T04:20:54.454Z,20.27
2017-05-01T04:21:20.008Z,20.34
2017-05-01T04:21:45.570Z,20.24
2017-05-01T04:22:11.149Z,20.28
2017-05-01T04:22:36.713Z,20.33
2017-05-01T04:23:02.353Z,20.25
2017-05-01T04:23:27.920Z,20.27
2017-05-01T04:23:53.482Z,20.27
2017-05-01T04:24:19.042Z,20.23
2017-05-01T04:24:44.603Z,20.3
2017-05-01T04:25:10.158Z,20.21
2017-05-01T04:25:35.724Z,20.24
2017-05-01T04:26:01.280Z,20.24
2017-05-01T04:26:26.857Z,20.25
2017-05-01T04:26:52.560Z,20.28
2017-05-01T04:27:18.136Z,20.25
2017-05-01T04:27:43.690Z,20.24
2017-05-01T04:28:09.260Z,20.28
2017-05-01T04:28:34.818Z,20.23
2017-05-01T04:29:00.379Z,20.21
2017-05-01T04:29:25.934Z,20.23
2017-05-01T04:29:51.500Z,20.27
2017-05-01T04:30:17.085Z,20.21
2017-05-01T04:30:42.610Z,20.25
2017-05-01T04:31:08.202Z,20.25
2017-05-01T04:31:33.840Z,20.27
2017-05-01T04:31:59.413Z,20.24
2017-05-01T04:32:24.973Z,20.24
2017-05-01T04:32:50.612Z,20.25
2017-05-01T04:33:16.186Z,20.2
2017-05-01T04:33:41.742Z,20.21
2017-05-01T04:34:07.303Z,20.3
2017-05-01T04:34:32.976Z,20.28
2017-05-01T04:34:58.551Z,20.2
2017-05-01T04:35:24.110Z,20.21
2017-05-01T04:36:22.560Z,20.24
2017-05-01T04:36:48.135Z,20.28
2017-05-01T04:37:13.790Z,20.24
2017-05-01T04:37:39.391Z,20.2
2017-05-01T04:38:04.911Z,20.23
2017-05-01T04:38:30.473Z,20.2
2017-05-01T04:38:56.031Z,20.23
2017-05-01T04:39:21.698Z,20.27
2017-05-01T04:39:47.273Z,20.21
2017-05-01T04:40:12.859Z,20.2
2017-05-01T04:40:38.424Z,20.23
2017-05-01T04:41:03.994Z,20.21
2017-05-01T04:41:29.573Z,20.2
2017-05-01T04:41:55.303Z,20.24
2017-05-01T04:42:20.867Z,20.24
2017-05-01T04:42:46.439Z,20.2
2017-05-01T04:43:12.101Z,20.28
2017-05-01T04:43:37.654Z,20.24
2017-05-01T04:44:03.236Z,20.21
2017-05-01T04:44:28.787Z,20.2
2017-05-01T04:44:54.351Z,20.25
2017-05-01T04:45:19.922Z,20.18
2017-05-01T04:45:45.489Z,20.27
2017-05-01T04:46:11.050Z,20.2
2017-05-01T04:46:36.603Z,20.23
2017-05-01T04:47:02.292Z,20.2
2017-05-01T04:47:27.853Z,20.2
2017-05-01T04:47:53.424Z,20.21
2017-05-01T04:48:18.984Z,20.27
2017-05-01T04:48:44.550Z,20.21
2017-05-01T04:49:10.128Z,20.25
2017-05-01T04:49:35.697Z,20.2
2017-05-01T04:50:01.273Z,20.24
2017-05-01T04:50:26.839Z,20.18
2017-05-01T04:50:52.442Z,20.24
2017-05-01T04:51:17.997Z,20.21
2017-05-01T04:51:43.567Z,20.18
2017-05-01T04:52:09.283Z,20.2
2017-05-01T04:52:34.826Z,20.21
2017-05-01T04:53:00.372Z,20.27
2017-05-01T04:53:26.009Z,20.25
2017-05-01T04:53:51.570Z,20.21
2017-05-01T04:54:17.140Z,20.23
2017-05-01T04:54:42.701Z,20.23
2017-05-01T04:55:08.436Z,20.21
2017-05-01T04:55:33.996Z,20.24
2017-05-01T04:55:59.578Z,20.21
2017-05-01T04:56:25.237Z,20.23
2017-05-01T04:56:50.794Z,20.24
2017-05-01T04:57:16.347Z,20.24
2017-05-01T04:57:41.929Z,20.18
2017-05-01T04:58:07.492Z,20.18
2017-05-01T04:58:33.052Z,20.24
2017-05-01T04:58:58.611Z,20.23
2017-05-01T04:59:24.223Z,20.2
2017-05-01T04:59:49.788Z,20.23
2017-05-01T05:00:15.371Z,20.28
2017-05-01T05:00:40.941Z,20.21
2017-05-01T05:01:06.514Z,20.27
2017-05-01T05:01:32.081Z,20.24
2017-05-01T05:01:57.649Z,20.27
2017-05-01T05:02:23.218Z,20.23
2017-05-01T05:02:48.794Z,20.25
2017-05-01T05:03:14.349Z,20.23
2017-05-01T05:03:39.909Z,20.2
2017-05-01T05:04:05.479Z,20.2
2017-05-01T05:04:31.040Z,20.23
2017-05-01T05:04:56.603Z,20.2
2017-05-01T05:05:22.166Z,20.18
2017-05-01T05:05:47.733Z,20.21
2017-05-01T05:06:13.363Z,20.18
2017-05-01T05:06:38.934Z,20.16
2017-05-01T05:07:04.500Z,20.2
2017-05-01T05:07:30.069Z,20.25
2017-05-01T05:07:55.643Z,20.27
2017-05-01T05:08:21.199Z,20.18
2017-05-01T05:08:46.765Z,20.2
2017-05-01T05:09:12.345Z,20.21
2017-05-01T05:09:37.966Z,20.25
2017-05-01T05:10:03.533Z,20.21
2017-05-01T05:10:29.095Z,20.06
2017-05-01T05:10:54.650Z,20.21
2017-05-01T05:11:20.211Z,20.23
2017-05-01T05:11:45.765Z,20.2
2017-05-01T05:12:11.326Z,20.21
2017-05-01T05:12:36.904Z,20.21
2017-05-01T05:13:02.686Z,20.23
2017-05-01T05:13:28.251Z,20.2
2017-05-01T05:13:53.823Z,20.13
2017-05-01T05:14:19.382Z,20.25
2017-05-01T05:14:44.951Z,20.2
2017-05-01T05:15:10.523Z,20.25
2017-05-01T05:15:36.105Z,20.21
2017-05-01T05:16:01.667Z,20.24
2017-05-01T05:16:27.231Z,20.25
2017-05-01T05:16:52.789Z,20.25
2017-05-01T05:17:18.342Z,20.21
2017-05-01T05:17:43.902Z,20.2
2017-05-01T05:18:09.468Z,20.21
2017-05-01T05:18:35.084Z,20.27
2017-05-01T05:19:00.643Z,20.24
2017-05-01T05:19:26.207Z,20.15
2017-05-01T05:19:51.784Z,20.15
2017-05-01T05:20:17.341Z,20.21
2017-05-01T05:20:42.900Z,20.24
2017-05-01T05:21:08.469Z,20.16
2017-05-01T05:21:34.021Z,20.16
2017-05-01T05:21:59.592Z,20.25
2017-05-01T05:22:25.160Z,20.2
2017-05-01T05:22:50.753Z,20.21
2017-05-01T05:23:16.333Z,20.16
2017-05-01T05:23:41.924Z,20.21
2017-05-01T05:24:07.474Z,20.18
2017-05-01T05:24:33.106Z,20.18
2017-05-01T05:24:58.633Z,20.21
2017-05-01T05:25:24.200Z,20.23
2017-05-01T05:25:49.763Z,20.18
2017-05-01T05:26:15.326Z,20.15
2017-05-01T05:26:40.902Z,20.16
2017-05-01T05:27:06.543Z,20.18
2017-05-01T05:27:32.224Z,20.24
2017-05-01T05:27:57.809Z,20.18
2017-05-01T05:28:23.373Z,20.08
2017-05-01T05:28:48.965Z,20.1
2017-05-01T05:29:14.545Z,20.15
2017-05-01T05:29:40.113Z,20.21
2017-05-01T05:30:05.674Z,20.16
2017-05-01T05:30:31.233Z,20.15
2017-05-01T05:30:56.804Z,20.18
2017-05-01T05:31:22.363Z,20.1
2017-05-01T05:31:47.916Z,20.05
2017-05-01T05:32:13.492Z,20.15
2017-05-01T05:32:39.083Z,20.16
2017-05-01T05:33:04.651Z,20.16
2017-05-01T05:33:30.222Z,20.15
2017-05-01T05:33:55.813Z,20.16
2017-05-01T05:34:21.372Z,20.16
2017-05-01T05:34:46.924Z,20.16
2017-05-01T05:35:12.554Z,20.09
2017-05-01T05:35:38.124Z,20.16
2017-05-01T05:36:03.785Z,20.08
2017-05-01T05:36:29.361Z,20.1
2017-05-01T05:36:54.924Z,20.06
2017-05-01T05:37:20.489Z,20.12
2017-05-01T05:37:46.056Z,20.08
2017-05-01T05:38:11.624Z,20.13
2017-05-01T05:38:37.188Z,20.16
2017-05-01T05:39:02.744Z,20.09
2017-05-01T05:39:28.310Z,20.2
2017-05-01T05:39:53.976Z,20.12
2017-05-01T05:40:19.539Z,20.09
2017-05-01T05:40:45.095Z,20.16
2017-05-01T05:41:10.714Z,20.1
2017-05-01T05:41:36.312Z,20.06
2017-05-01T05:42:01.895Z,20.15
2017-05-01T05:42:27.460Z,20.09
2017-05-01T05:42:53.027Z,20.16
2017-05-01T05:43:18.594Z,20.16
2017-05-01T05:43:44.176Z,20.09
2017-05-01T05:44:09.734Z,20.1
2017-05-01T05:44:35.283Z,20.06
2017-05-01T05:45:00.847Z,20.09
2017-05-01T05:45:26.454Z,20.1
2017-05-01T05:45:52.007Z,20.09
2017-05-01T05:46:17.605Z,20.06
2017-05-01T05:46:43.181Z,20.09
2017-05-01T05:47:08.734Z,20.15
2017-05-01T05:47:34.285Z,20.09
2017-05-01T05:47:59.843Z,20.1
2017-05-01T05:48:25.395Z,20.15
2017-05-01T05:48:51.156Z,20.05
2017-05-01T05:49:16.725Z,20.12
2017-05-01T05:49:42.284Z,20.16
2017-05-01T05:50:07.878Z,20.16
2017-05-01T05:50:33.615Z,20.12
2017-05-01T05:50:59.163Z,20.16
2017-05-01T05:51:24.728Z,20.15
2017-05-01T05:51:50.281Z,20.05
2017-05-01T05:52:15.832Z,20.1
2017-05-01T05:52:41.399Z,20.21
2017-05-01T05:53:06.979Z,20.09
2017-05-01T05:53:32.564Z,20.09
2017-05-01T05:53:58.128Z,20.21
2017-05-01T05:54:23.746Z,20.18
2017-05-01T05:54:49.314Z,20.16
2017-05-01T05:55:14.914Z,20.13
2017-05-01T05:55:40.484Z,20.1
2017-05-01T05:56:06.044Z,20.18
2017-05-01T05:56:31.684Z,20.15
2017-05-01T05:56:57.254Z,20.18
2017-05-01T05:57:22.893Z,20.23
2017-05-01T05:57:48.467Z,20.18
2017-05-01T05:58:14.058Z,20.09
2017-05-01T05:58:39.620Z,20.1
2017-05-01T05:59:05.182Z,20.21
2017-05-01T05:59:30.901Z,20.21
2017-05-01T05:59:56.491Z,20.12
2017-05-01T06:00:49.833Z,20.18
2017-05-01T06:01:15.382Z,20.09
2017-05-01T06:01:40.961Z,20.09
2017-05-01T06:02:06.540Z,20.09
2017-05-01T06:02:32.088Z,20.13
2017-05-01T06:02:57.690Z,20.13
2017-05-01T06:03:23.241Z,20.09
2017-05-01T06:03:48.829Z,20.15
2017-05-01T06:04:14.533Z,20.1
2017-05-01T06:04:40.109Z,20.09
2017-05-01T06:05:05.963Z,20.1
2017-05-01T06:05:31.496Z,20.13
2017-05-01T06:05:57.171Z,20.09
2017-05-01T06:06:22.740Z,20.16
2017-05-01T06:06:48.292Z,20.13
2017-05-01T06:07:13.828Z,20.18
2017-05-01T06:07:39.548Z,20.09
2017-05-01T06:08:05.111Z,20.13
2017-05-01T06:08:31.108Z,20.09
2017-05-01T06:08:56.683Z,20.15
2017-05-01T06:09:22.240Z,20.2
2017-05-01T06:09:47.808Z,20.15
2017-05-01T06:10:13.372Z,20.15
2017-05-01T06:10:38.957Z,20.13
2017-05-01T06:11:04.536Z,20.1
2017-05-01T06:11:30.087Z,20.09
2017-05-01T06:11:55.641Z,20.1
2017-05-01T06:12:21.197Z,20.12
2017-05-01T06:12:46.730Z,20.12
2017-05-01T06:13:12.284Z,20.15
2017-05-01T06:13:37.827Z,20.09
2017-05-01T06:14:03.412Z,20.12
2017-05-01T06:14:29.049Z,20.09
2017-05-01T06:14:54.606Z,20.12
2017-05-01T06:15:20.176Z,20.12
2017-05-01T06:15:45.726Z,20.16
2017-05-01T06:16:11.284Z,20.13
2017-05-01T06:16:36.910Z,20.09
2017-05-01T06:17:02.482Z,20.12
2017-05-01T06:17:28.044Z,20.16
2017-05-01T06:17:53.605Z,20.16
2017-05-01T06:18:19.211Z,20.13
2017-05-01T06:18:44.762Z,20.12
2017-05-01T06:19:10.514Z,20.12
2017-05-01T06:19:36.077Z,20.09
2017-05-01T06:20:01.633Z,20.09
2017-05-01T06:20:27.190Z,20.09
2017-05-01T06:20:52.778Z,20.12
2017-05-01T06:21:18.353Z,20.03
2017-05-01T06:21:43.910Z,20.12
2017-05-01T06:22:09.481Z,20.13
2017-05-01T06:22:35.068Z,20.09
2017-05-01T06:23:00.631Z,20.09
2017-05-01T06:23:26.308Z,20.13
2017-05-01T06:23:51.868Z,20.16
2017-05-01T06:24:17.416Z,20.1
2017-05-01T06:24:42.968Z,20.09
2017-05-01T06:25:08.547Z,20.08
2017-05-01T06:25:34.129Z,20.06
2017-05-01T06:25:59.686Z,20.09
2017-05-01T06:26:25.439Z,20.12
2017-05-01T06:26:50.995Z,20.09
2017-05-01T06:27:16.557Z,20.13
2017-05-01T06:27:42.121Z,20.08
2017-05-01T06:28:07.687Z,20.12
2017-05-01T06:28:33.264Z,20.15
2017-05-01T06:28:58.854Z,20.09
2017-05-01T06:29:24.421Z,20.18
2017-05-01T06:29:49.990Z,20.09
2017-05-01T06:30:15.607Z,20.13
2017-05-01T06:30:41.244Z,20.12
2017-05-01T06:31:06.791Z,20.06
2017-05-01T06:31:32.382Z,20.12
2017-05-01T06:31:57.944Z,20.1
2017-05-01T06:32:23.497Z,20.12
2017-05-01T06:32:49.065Z,20.02
2017-05-01T06:33:14.626Z,20.09
2017-05-01T06:33:40.283Z,20.1
2017-05-01T06:34:05.865Z,20.09
2017-05-01T06:34:31.418Z,20.09
2017-05-01T06:34:57.020Z,20.15
2017-05-01T06:35:22.608Z,20.15
2017-05-01T06:35:48.162Z,20.15
2017-05-01T06:36:13.736Z,20.13
2017-05-01T06:36:39.312Z,20.08
2017-05-01T06:37:04.863Z,20.1
2017-05-01T06:37:30.423Z,20.1
2017-05-01T06:37:55.987Z,20.08
2017-05-01T06:38:21.553Z,20.06
2017-05-01T06:38:47.107Z,20.13
2017-05-01T06:39:12.683Z,20.13
2017-05-01T06:39:38.274Z,20.05
2017-05-01T06:40:03.862Z,20.16
2017-05-01T06:40:29.429Z,20.15
2017-05-01T06:40:54.987Z,20.02
2017-05-01T06:41:20.559Z,20.1
2017-05-01T06:41:46.106Z,20.1
2017-05-01T06:42:11.693Z,20.12
2017-05-01T06:42:37.447Z,20.18
2017-05-01T06:43:03.024Z,20.16
2017-05-01T06:43:28.612Z,20.09
2017-05-01T06:43:54.175Z,20.09
2017-05-01T06:44:19.749Z,20.09
2017-05-01T06:44:45.323Z,20.1
2017-05-01T06:45:10.899Z,20.15
2017-05-01T06:45:36.502Z,20.08
2017-05-01T06:46:02.061Z,20.05
2017-05-01T06:46:27.641Z,20.09
2017-05-01T06:46:53.207Z,20.09
2017-05-01T06:47:18.768Z,20.09
2017-05-01T06:47:44.379Z,20.12
2017-05-01T06:48:09.941Z,20.09
2017-05-01T06:48:35.514Z,20.09
2017-05-01T06:49:01.135Z,20.1
2017-05-01T06:49:26.701Z,20.09
2017-05-01T06:49:52.263Z,20.06
2017-05-01T06:50:17.924Z,20.13
2017-05-01T06:50:43.595Z,20.05
2017-05-01T06:51:09.158Z,20.05
2017-05-01T06:51:35.086Z,20.15
2017-05-01T06:52:00.630Z,20.06
2017-05-01T06:52:26.190Z,20.13
2017-05-01T06:52:51.742Z,20.13
2017-05-01T06:53:17.313Z,20.13
2017-05-01T06:53:42.891Z,20.16
2017-05-01T06:54:08.467Z,20.09
2017-05-01T06:54:34.029Z,20.1
2017-05-01T06:54:59.607Z,20.09
2017-05-01T06:55:25.164Z,20.1
2017-05-01T06:55:50.735Z,20.1
2017-05-01T06:56:16.312Z,20.13
2017-05-01T06:56:41.878Z,20.06
2017-05-01T06:57:07.432Z,20.12
2017-05-01T06:57:32.987Z,20.06
2017-05-01T06:57:58.553Z,20.12
2017-05-01T06:58:24.131Z,20.09
2017-05-01T06:58:49.785Z,20.13
2017-05-01T06:59:15.342Z,20.09
2017-05-01T06:59:40.914Z,20.13
2017-05-01T07:00:06.598Z,20.12
2017-05-01T07:00:32.247Z,20.05
2017-05-01T07:00:57.826Z,20.16
2017-05-01T07:01:23.392Z,20.05
2017-05-01T07:01:49.001Z,20.12
2017-05-01T07:02:14.609Z,20.09
2017-05-01T07:02:40.212Z,20.08
2017-05-01T07:03:05.758Z,20.15
2017-05-01T07:03:31.316Z,20.05
2017-05-01T07:03:56.885Z,20.1
2017-05-01T07:04:22.476Z,20.09
2017-05-01T07:04:48.045Z,20.12
2017-05-01T07:05:13.596Z,20.08
2017-05-01T07:05:39.213Z,20.12
2017-05-01T07:06:04.813Z,20.09
2017-05-01T07:06:30.395Z,20.15
2017-05-01T07:06:55.973Z,20.09
2017-05-01T07:07:21.545Z,20.09
2017-05-01T07:07:47.222Z,20.09
2017-05-01T07:08:12.826Z,20.13
2017-05-01T07:08:38.579Z,20.05
2017-05-01T07:09:04.131Z,20.09
2017-05-01T07:09:29.700Z,20.09
2017-05-01T07:09:55.261Z,20.15
2017-05-01T07:10:20.844Z,20.12
2017-05-01T07:10:46.402Z,20.09
2017-05-01T07:11:12.090Z,20.12
2017-05-01T07:11:37.672Z,20.06
2017-05-01T07:12:03.261Z,20.15
2017-05-01T07:12:28.833Z,20.09
2017-05-01T07:12:54.395Z,20.1
2017-05-01T07:13:19.954Z,20.2
2017-05-01T07:13:45.583Z,20.05
2017-05-01T07:14:11.152Z,20.09
2017-05-01T07:14:36.784Z,20.12
2017-05-01T07:15:02.409Z,20.06
2017-05-01T07:15:27.981Z,20.09
2017-05-01T07:15:53.544Z,20.13
2017-05-01T07:16:19.359Z,20.15
2017-05-01T07:16:44.923Z,20.09
2017-05-01T07:17:10.633Z,20.15
2017-05-01T07:17:36.211Z,20.08
2017-05-01T07:18:01.821Z,20.13
2017-05-01T07:18:27.391Z,20.08
2017-05-01T07:18:52.959Z,20.06
2017-05-01T07:19:18.649Z,20.05
2017-05-01T07:19:44.268Z,20.08
2017-05-01T07:20:09.825Z,20.16
2017-05-01T07:20:35.396Z,20.12
2017-05-01T07:21:01.119Z,20.15
2017-05-01T07:21:26.700Z,20.12
2017-05-01T07:21:52.286Z,20.08
2017-05-01T07:22:17.843Z,20.1
2017-05-01T07:22:43.402Z,20.09
2017-05-01T07:23:08.992Z,20.09
2017-05-01T07:23:34.545Z,20.16
2017-05-01T07:24:00.148Z,20.09
2017-05-01T07:24:25.736Z,20.12
2017-05-01T07:24:51.335Z,20.12
2017-05-01T07:25:16.890Z,20.1
2017-05-01T07:25:42.461Z,20.12
2017-05-01T07:26:08.044Z,20.05
2017-05-01T07:27:16.696Z,20.16
2017-05-01T07:27:42.264Z,20.13
2017-05-01T07:28:08.845Z,20.23
2017-05-01T07:30:15.149Z,20.06
2017-05-01T07:30:40.740Z,20.09
2017-05-01T07:31:06.319Z,20.09
2017-05-01T07:31:31.887Z,20.1
2017-05-01T07:31:57.441Z,20.15
2017-05-01T07:32:23.016Z,20.09
2017-05-01T07:32:48.582Z,20.09
2017-05-01T07:33:14.156Z,20.16
2017-05-01T07:33:39.744Z,20.16
2017-05-01T07:34:05.315Z,20.13
2017-05-01T07:34:30.860Z,20.02
2017-05-01T07:34:56.455Z,20.12
2017-05-01T07:35:22.050Z,20.12
2017-05-01T07:35:47.619Z,20.09
2017-05-01T07:36:13.186Z,20.12
2017-05-01T07:36:38.760Z,20.09
2017-05-01T07:37:04.461Z,20.1
2017-05-01T07:37:30.011Z,20.12
2017-05-01T07:37:55.570Z,20.15
2017-05-01T07:38:21.149Z,20.12
2017-05-01T07:38:46.744Z,20.15
2017-05-01T07:39:12.313Z,20.12
2017-05-01T07:39:37.938Z,20.16
2017-05-01T07:40:41.602Z,20.16
2017-05-01T07:41:07.168Z,20.16
2017-05-01T07:41:32.728Z,20.2
2017-05-01T07:41:58.349Z,20.13
2017-05-01T07:42:23.904Z,20.18
2017-05-01T07:42:49.452Z,20.13
2017-05-01T07:43:14.991Z,20.08
2017-05-01T07:43:40.626Z,20.13
2017-05-01T07:44:06.214Z,20.09
2017-05-01T07:44:31.814Z,20.09
2017-05-01T07:44:57.409Z,20.09
2017-05-01T07:45:23.002Z,20.09
2017-05-01T07:45:48.581Z,20.15
2017-05-01T07:46:14.147Z,20.1
2017-05-01T07:46:39.721Z,20.13
2017-05-01T07:47:05.323Z,20.05
2017-05-01T07:47:30.911Z,20.18
2017-05-01T07:47:56.461Z,20.2
2017-05-01T07:48:22.093Z,20.2
2017-05-01T07:48:47.662Z,20.2
2017-05-01T07:49:13.242Z,20.24
2017-05-01T07:49:38.814Z,20.25
2017-05-01T07:50:04.378Z,20.21
2017-05-01T07:50:29.949Z,20.24
2017-05-01T07:50:55.623Z,20.25
2017-05-01T07:51:21.184Z,20.15
2017-05-01T07:51:46.766Z,20.18
2017-05-01T07:52:12.395Z,20.21
2017-05-01T07:52:37.963Z,20.16
2017-05-01T07:53:03.556Z,20.16
2017-05-01T07:53:29.129Z,20.09
2017-05-01T07:53:54.839Z,20.13
2017-05-01T07:54:20.396Z,20.13
2017-05-01T07:54:46.052Z,20.09
2017-05-01T07:55:11.663Z,20.13
2017-05-01T07:55:37.253Z,20.1
2017-05-01T07:56:02.913Z,20.12
2017-05-01T07:56:28.506Z,20.08
2017-05-01T07:56:54.068Z,20.05
2017-05-01T07:57:19.645Z,20.16
2017-05-01T07:57:45.283Z,20.09
2017-05-01T07:58:10.838Z,20.09
2017-05-01T07:58:36.397Z,20.06
2017-05-01T07:59:01.957Z,20.13
2017-05-01T07:59:27.660Z,20.15
2017-05-01T07:59:53.233Z,20.08
2017-05-01T08:00:18.780Z,20.1
2017-05-01T08:00:44.353Z,20.09
2017-05-01T08:01:09.932Z,20.09
2017-05-01T08:01:35.490Z,20.12
2017-05-01T08:02:01.054Z,20.09
2017-05-01T08:02:26.629Z,20.13
2017-05-01T08:02:52.214Z,20.13
2017-05-01T08:03:17.773Z,20.1
2017-05-01T08:03:43.350Z,20.1
2017-05-01T08:04:09.002Z,20.12
2017-05-01T08:04:34.677Z,20.05
2017-05-01T08:05:00.235Z,20.12
2017-05-01T08:05:25.872Z,20.1
2017-05-01T08:05:51.438Z,20.09
2017-05-01T08:06:17.977Z,20.09
2017-05-01T08:06:43.593Z,20.09
2017-05-01T08:07:09.231Z,20.13
2017-05-01T08:07:34.914Z,20.13
2017-05-01T08:08:00.493Z,20.18
2017-05-01T08:08:26.133Z,20.16
2017-05-01T08:08:51.764Z,20.12
2017-05-01T08:09:17.490Z,20.06
2017-05-01T08:09:43.139Z,20.05
2017-05-01T08:10:08.810Z,20.1
2017-05-01T08:10:34.333Z,20.09
2017-05-01T08:10:59.997Z,20.18
2017-05-01T08:11:25.574Z,20.09
2017-05-01T08:11:51.211Z,20.05
2017-05-01T08:12:16.879Z,20.1
2017-05-01T08:12:42.420Z,20.09
2017-05-01T08:13:08.001Z,20.13
2017-05-01T08:13:33.592Z,20.09
2017-05-01T08:13:59.169Z,20
2017-05-01T08:14:24.746Z,20.12
2017-05-01T08:14:50.330Z,20.12
2017-05-01T08:15:15.887Z,20.12
2017-05-01T08:15:41.469Z,20.05
2017-05-01T08:16:07.025Z,20.12
2017-05-01T08:16:32.585Z,20.05
2017-05-01T08:16:58.159Z,20.12
2017-05-01T08:17:23.731Z,20.1
2017-05-01T08:17:49.301Z,20.05
2017-05-01T08:18:14.896Z,20.09
2017-05-01T08:18:40.473Z,20.09
2017-05-01T08:19:06.113Z,20.1
2017-05-01T08:19:31.676Z,20.12
2017-05-01T08:19:57.278Z,20.1
2017-05-01T08:20:22.823Z,20.03
2017-05-01T08:20:48.411Z,20.13
2017-05-01T08:21:13.980Z,20.1
2017-05-01T08:21:39.548Z,20.1
2017-05-01T08:22:05.305Z,20.03
2017-05-01T08:22:30.871Z,20.06
2017-05-01T08:22:56.443Z,20.12
2017-05-01T08:23:22.242Z,20.09
2017-05-01T08:23:47.822Z,20.06
2017-05-01T08:24:13.542Z,20.02
2017-05-01T08:24:39.125Z,20.13
2017-05-01T08:25:04.699Z,20.02
2017-05-01T08:25:30.343Z,20.09
2017-05-01T08:25:55.910Z,20.1
2017-05-01T08:26:21.497Z,20.09
2017-05-01T08:26:47.243Z,20.06
2017-05-01T08:27:12.797Z,20.08
2017-05-01T08:27:38.580Z,20.18
2017-05-01T08:28:04.177Z,20.09
2017-05-01T08:28:29.729Z,20.16
2017-05-01T08:28:55.299Z,20.1
2017-05-01T08:29:20.856Z,20.15
2017-05-01T08:29:46.437Z,20.12
2017-05-01T08:30:12.202Z,20.1
2017-05-01T08:30:37.762Z,20.1
2017-05-01T08:31:03.347Z,20.12
2017-05-01T08:31:28.902Z,20.09
2017-05-01T08:31:54.471Z,20.12
2017-05-01T08:32:20.028Z,20.09
2017-05-01T08:32:45.594Z,20.15
2017-05-01T08:33:11.153Z,20.09
2017-05-01T08:33:36.735Z,20.12
2017-05-01T08:34:25.234Z,20.1
2017-05-01T08:34:50.918Z,20.1
2017-05-01T08:35:16.491Z,20.1
2017-05-01T08:35:42.060Z,20.1
2017-05-01T08:36:07.865Z,20.09
2017-05-01T08:36:33.429Z,20.05
2017-05-01T08:36:59.148Z,20.09
2017-05-01T08:37:24.750Z,20.02